createdAt,value
2023-02-11T00:00:13.559Z,20.60
2023-02-11T00:02:40.493Z,21.65
2023-02-11T00:05:07.458Z,24.27
2023-02-11T00:07:34.710Z,23.92
2023-02-11T00:10:06.449Z,22.90
2023-02-11T00:12:33.006Z,25.52
2023-02-11T00:14:59.490Z,20.85
2023-02-11T00:17:26.062Z,21.25
2023-02-11T00:19:52.853Z,21.90
2023-02-11T00:22:19.605Z,22.20
2023-02-11T00:24:46.235Z,20.50
2023-02-11T00:27:12.777Z,23.70
2023-02-11T00:29:39.472Z,20.20
2023-02-11T00:32:06.796Z,22.35
2023-02-11T00:34:33.945Z,22.50
2023-02-11T00:37:00.494Z,21.35
2023-02-11T00:39:27.066Z,21.23
2023-02-11T00:41:53.680Z,21.90
2023-02-11T00:44:20.431Z,22.42
2023-02-11T00:46:46.999Z,20.30
2023-02-11T00:49:14.438Z,23.27
2023-02-11T00:51:40.975Z,22.27
2023-02-11T00:54:07.962Z,21.73
2023-02-11T00:56:34.782Z,20.85
2023-02-11T01:01:28.043Z,20.98
2023-02-11T01:06:21.123Z,18.85
2023-02-11T01:08:47.726Z,22.40
2023-02-11T01:11:18.272Z,20.65
2023-02-11T01:13:45.528Z,23.25
2023-02-11T01:16:12.707Z,20.10
2023-02-11T01:18:39.902Z,21.80
2023-02-11T01:21:06.474Z,21.70
2023-02-11T01:23:33.335Z,20.92
2023-02-11T01:25:59.930Z,21.38
2023-02-11T01:28:28.885Z,21.13
2023-02-11T01:30:55.832Z,21.05
2023-02-11T01:33:22.984Z,21.17
2023-02-11T01:35:50.190Z,21.85
2023-02-11T01:38:25.719Z,22.58
2023-02-11T01:40:58.324Z,25.38
2023-02-11T01:43:26.872Z,24.08
2023-02-11T01:46:31.168Z,23.50
2023-02-11T01:49:12.876Z,23.75
2023-02-11T01:51:43.937Z,24.60
2023-02-11T01:54:32.620Z,23.50
2023-02-11T01:57:18.783Z,25.30
2023-02-11T02:00:06.502Z,23.08
2023-02-11T02:02:40.871Z,22.25
2023-02-11T02:05:20.556Z,27.33
2023-02-11T02:07:53.049Z,23.65
2023-02-11T02:10:25.619Z,25.83
2023-02-11T02:12:52.213Z,25.42
2023-02-11T02:15:23.631Z,24.80
2023-02-11T02:17:59.714Z,24.85
2023-02-11T02:21:07.908Z,25.60
2023-02-11T02:24:14.251Z,24.97
2023-02-11T02:26:52.731Z,23.35
2023-02-11T02:29:48.420Z,22.55
2023-02-11T02:32:30.271Z,24.15
2023-02-11T02:35:10.497Z,24.00
2023-02-11T02:37:44.943Z,23.23
2023-02-11T02:40:23.885Z,22.48
2023-02-11T02:42:51.502Z,21.40
2023-02-11T02:45:18.782Z,21.92
2023-02-11T02:47:45.620Z,24.58
2023-02-11T02:52:57.334Z,18.58
2023-02-11T02:55:57.842Z,19.42
2023-02-11T02:59:06.704Z,20.10
2023-02-11T03:02:01.937Z,20.45
2023-02-11T03:04:43.573Z,20.70
2023-02-11T03:07:41.865Z,21.63
2023-02-11T03:10:15.778Z,20.88
2023-02-11T03:12:43.993Z,20.50
2023-02-11T03:15:12.783Z,20.27
2023-02-11T03:17:44.374Z,18.83
2023-02-11T03:20:14.603Z,20.13
2023-02-11T03:22:52.987Z,19.88
2023-02-11T03:25:20.848Z,19.95
2023-02-11T03:27:56.102Z,21.33
2023-02-11T03:30:30.436Z,18.88
2023-02-11T03:33:22.593Z,21.40
2023-02-11T03:35:56.318Z,20.65
2023-02-11T03:38:30.149Z,18.40
2023-02-11T03:40:59.905Z,17.90
2023-02-11T03:43:31.368Z,21.38
2023-02-11T03:45:59.658Z,19.25
2023-02-11T03:48:31.672Z,19.73
2023-02-11T03:51:01.256Z,19.75
2023-02-11T03:53:27.859Z,21.88
2023-02-11T03:55:56.832Z,22.15
2023-02-11T03:58:23.343Z,20.95
2023-02-11T04:00:49.869Z,19.35
2023-02-11T04:03:16.447Z,21.63
2023-02-11T04:05:42.915Z,21.50
2023-02-11T04:08:09.397Z,22.65
2023-02-11T04:10:35.856Z,19.85
2023-02-11T04:13:02.606Z,19.17
2023-02-11T04:15:29.130Z,20.38
2023-02-11T04:17:55.770Z,20.27
2023-02-11T04:20:22.221Z,21.85
2023-02-11T04:22:48.717Z,21.45
2023-02-11T04:25:15.265Z,23.23
2023-02-11T04:27:41.778Z,17.35
2023-02-11T04:30:09.552Z,18.13
2023-02-11T04:32:36.000Z,18.80
2023-02-11T04:35:03.064Z,20.13
2023-02-11T04:37:29.815Z,16.92
2023-02-11T04:42:23.366Z,17.20
2023-02-11T04:44:49.814Z,16.70
2023-02-11T04:47:16.520Z,18.35
2023-02-11T04:49:42.978Z,18.00
2023-02-11T04:52:09.434Z,17.48
2023-02-11T04:54:35.932Z,17.17
2023-02-11T04:57:02.684Z,16.15
2023-02-11T04:59:29.367Z,17.58
2023-02-11T05:01:55.945Z,16.45
2023-02-11T05:04:22.507Z,17.75
2023-02-11T05:06:49.115Z,15.90
2023-02-11T05:09:15.735Z,16.23
2023-02-11T05:11:42.718Z,16.55
2023-02-11T05:14:09.160Z,16.42
2023-02-11T05:16:35.794Z,16.60
2023-02-11T05:19:02.382Z,16.70
2023-02-11T05:21:29.087Z,13.60
2023-02-11T05:23:55.580Z,12.90
2023-02-11T05:26:22.032Z,13.38
2023-02-11T05:28:48.563Z,14.50
2023-02-11T05:31:15.240Z,13.93
2023-02-11T05:33:41.826Z,14.48
2023-02-11T05:36:10.574Z,13.82
2023-02-11T05:38:37.483Z,13.45
2023-02-11T05:41:05.385Z,13.65
2023-02-11T05:43:32.479Z,14.73
2023-02-11T05:45:59.032Z,14.00
2023-02-11T05:48:25.560Z,13.00
2023-02-11T05:50:52.539Z,13.82
2023-02-11T05:53:19.116Z,14.02
2023-02-11T05:55:46.099Z,12.95
2023-02-11T05:58:12.580Z,14.45
2023-02-11T06:00:39.358Z,14.70
2023-02-11T06:05:32.425Z,14.77
2023-02-11T06:07:59.395Z,14.38
2023-02-11T06:10:26.336Z,15.55
2023-02-11T06:12:52.795Z,14.68
2023-02-11T06:15:19.363Z,16.55
2023-02-11T06:17:45.835Z,14.75
2023-02-11T06:20:12.480Z,14.48
2023-02-11T06:22:38.972Z,15.73
2023-02-11T06:25:05.965Z,16.45
2023-02-11T06:27:32.508Z,16.70
2023-02-11T06:29:58.983Z,15.48
2023-02-11T06:32:43.352Z,16.85
2023-02-11T06:35:12.333Z,16.38
2023-02-11T06:37:39.686Z,17.13
2023-02-11T06:40:06.471Z,17.92
2023-02-11T06:44:59.365Z,15.75
2023-02-11T06:47:25.892Z,16.88
2023-02-11T06:49:52.361Z,16.65
2023-02-11T06:52:18.817Z,17.33
2023-02-11T06:54:45.268Z,21.17
2023-02-11T06:57:11.723Z,18.83
2023-02-11T06:59:38.249Z,16.75
2023-02-11T07:02:04.757Z,18.08
2023-02-11T07:04:31.275Z,17.70
2023-02-11T07:06:57.710Z,16.42
2023-02-11T07:09:24.140Z,20.85
2023-02-11T07:11:50.717Z,19.27
2023-02-11T07:14:17.421Z,19.77
2023-02-11T07:16:43.888Z,18.50
2023-02-11T07:19:10.822Z,20.08
2023-02-11T07:21:37.438Z,20.92
2023-02-11T07:24:10.684Z,19.00
2023-02-11T07:26:37.423Z,19.63
2023-02-11T07:29:03.891Z,20.05
2023-02-11T07:31:31.357Z,18.52
2023-02-11T07:34:00.523Z,19.58
2023-02-11T07:36:28.158Z,19.08
2023-02-11T07:38:54.626Z,18.90
2023-02-11T07:41:23.045Z,19.75
2023-02-11T07:43:49.867Z,20.38
2023-02-11T07:48:45.994Z,19.60
2023-02-11T07:53:40.410Z,20.77
2023-02-11T07:56:08.262Z,21.65
2023-02-11T07:58:35.035Z,21.63
2023-02-11T08:03:36.298Z,21.17
2023-02-11T08:06:14.982Z,20.65
2023-02-11T08:08:42.021Z,22.58
2023-02-11T08:11:15.856Z,21.77
2023-02-11T08:13:42.842Z,21.55
2023-02-11T08:16:09.887Z,22.08
2023-02-11T08:18:36.827Z,23.73
2023-02-11T08:21:07.783Z,21.50
2023-02-11T08:23:36.659Z,19.80
2023-02-11T08:26:05.384Z,21.00
2023-02-11T08:28:32.031Z,24.08
2023-02-11T08:30:58.607Z,22.50
2023-02-11T08:33:25.176Z,22.77
2023-02-11T08:35:51.638Z,21.58
2023-02-11T08:38:18.079Z,23.27
2023-02-11T08:40:44.574Z,25.58
2023-02-11T08:43:11.056Z,24.35
2023-02-11T08:45:37.689Z,21.63
2023-02-11T08:48:04.375Z,22.40
2023-02-11T08:50:32.280Z,21.63
2023-02-11T08:52:58.792Z,22.20
2023-02-11T08:55:25.268Z,22.60
2023-02-11T08:57:51.840Z,22.40
2023-02-11T09:00:18.756Z,25.13
2023-02-11T09:02:45.253Z,23.63
2023-02-11T09:05:11.846Z,23.00
2023-02-11T09:07:38.312Z,21.45
2023-02-11T09:10:06.360Z,21.90
2023-02-11T09:12:32.893Z,22.20
2023-02-11T09:14:59.487Z,23.10
2023-02-11T09:17:25.960Z,20.98
2023-02-11T09:19:52.561Z,19.65
2023-02-11T09:22:18.987Z,25.63
2023-02-11T09:24:45.464Z,27.42
2023-02-11T09:27:11.916Z,23.88
2023-02-11T09:29:38.369Z,24.17
2023-02-11T09:32:07.254Z,21.98
2023-02-11T09:34:35.040Z,20.40
2023-02-11T09:37:02.121Z,24.08
2023-02-11T09:39:29.569Z,24.20
2023-02-11T09:42:25.161Z,22.90
2023-02-11T09:44:52.408Z,23.15
2023-02-11T09:47:45.713Z,23.42
2023-02-11T09:50:25.969Z,22.52
2023-02-11T09:53:03.200Z,22.50
2023-02-11T09:57:02.704Z,21.83
2023-02-11T10:02:18.516Z,20.23
2023-02-11T10:05:09.669Z,21.48
2023-02-11T10:07:56.139Z,20.17
2023-02-11T10:10:45.126Z,19.75
2023-02-11T10:13:32.074Z,20.83
2023-02-11T10:16:14.098Z,19.85
2023-02-11T10:18:56.779Z,20.92
2023-02-11T10:21:41.633Z,21.98
2023-02-11T10:24:12.752Z,23.70
2023-02-11T10:26:40.771Z,22.75
2023-02-11T10:29:27.498Z,24.80
2023-02-11T10:31:55.982Z,22.17
2023-02-11T10:34:24.440Z,22.10
2023-02-11T10:36:50.962Z,24.42
2023-02-11T10:39:20.620Z,22.55
2023-02-11T10:41:54.511Z,22.20
2023-02-11T10:44:32.663Z,22.05
2023-02-11T10:47:02.217Z,23.10
2023-02-11T10:49:43.262Z,22.45
2023-02-11T10:52:18.522Z,21.30
2023-02-11T10:55:14.600Z,22.45
2023-02-11T10:57:57.890Z,22.02
2023-02-11T11:00:38.918Z,20.42
2023-02-11T11:03:19.505Z,21.42
2023-02-11T11:05:57.405Z,22.27
2023-02-11T11:08:38.218Z,21.88
2023-02-11T11:11:09.051Z,19.42
2023-02-11T11:13:56.426Z,21.02
2023-02-11T11:16:24.462Z,21.42
2023-02-11T11:18:57.265Z,20.08
2023-02-11T11:21:26.832Z,19.05
2023-02-11T11:23:58.584Z,20.35
2023-02-11T11:26:40.188Z,21.05
2023-02-11T11:29:16.293Z,21.67
2023-02-11T11:31:53.259Z,20.23
2023-02-11T11:34:38.387Z,20.50
2023-02-11T11:37:22.607Z,20.67
2023-02-11T11:39:58.664Z,18.98
2023-02-11T11:42:28.735Z,18.42
2023-02-11T11:45:00.898Z,20.95
2023-02-11T11:47:31.447Z,18.35
2023-02-11T11:50:16.354Z,18.60
2023-02-11T11:52:45.916Z,17.63
2023-02-11T11:55:20.982Z,17.45
2023-02-11T11:57:47.798Z,16.90
2023-02-11T12:03:13.978Z,15.75
2023-02-11T12:05:55.783Z,19.20
2023-02-11T12:08:30.743Z,15.95
2023-02-11T12:11:10.042Z,15.55
2023-02-11T12:14:18.553Z,16.27
2023-02-11T12:17:01.626Z,16.02
2023-02-11T12:19:37.348Z,16.10
2023-02-11T12:22:06.736Z,14.15
2023-02-11T12:24:49.722Z,15.57
2023-02-11T12:27:44.285Z,16.38
2023-02-11T12:30:21.839Z,15.57
2023-02-11T12:33:04.835Z,15.88
2023-02-11T12:35:40.145Z,16.02
2023-02-11T12:38:21.881Z,14.35
2023-02-11T12:41:10.397Z,15.10
2023-02-11T12:43:42.401Z,15.15
2023-02-11T12:46:35.737Z,15.00
2023-02-11T12:49:23.830Z,13.80
2023-02-11T12:52:31.152Z,13.57
2023-02-11T12:55:08.396Z,14.10
2023-02-11T13:00:24.804Z,15.68
2023-02-11T13:03:40.618Z,17.02
2023-02-11T13:06:14.802Z,14.40
2023-02-11T13:08:47.990Z,14.40
2023-02-11T13:11:22.966Z,15.52
2023-02-11T13:14:06.491Z,14.00
2023-02-11T13:16:38.101Z,14.38
2023-02-11T13:19:13.834Z,14.32
2023-02-11T13:22:08.138Z,15.35
2023-02-11T13:24:41.766Z,15.32
2023-02-11T13:27:20.861Z,15.23
2023-02-11T13:30:22.361Z,15.68
2023-02-11T13:32:54.644Z,14.75
2023-02-11T13:35:29.945Z,16.48
2023-02-11T13:37:57.924Z,17.25
2023-02-11T13:40:27.615Z,14.10
2023-02-11T13:43:03.146Z,15.95
2023-02-11T13:45:49.315Z,14.32
2023-02-11T13:48:22.443Z,12.95
2023-02-11T13:50:53.284Z,14.50
2023-02-11T13:53:20.934Z,15.13
2023-02-11T13:55:51.562Z,14.45
2023-02-11T13:58:26.947Z,15.65
2023-02-11T14:00:54.013Z,13.77
2023-02-11T14:03:46.612Z,13.75
2023-02-11T14:06:33.854Z,13.70
2023-02-11T14:09:09.329Z,13.52
2023-02-11T14:11:41.988Z,12.00
2023-02-11T14:14:14.474Z,14.35
2023-02-11T14:17:02.890Z,14.52
2023-02-11T14:19:40.604Z,14.35
2023-02-11T14:22:10.160Z,12.98
2023-02-11T14:24:36.583Z,13.95
2023-02-11T14:27:15.653Z,14.23
2023-02-11T14:29:51.068Z,13.00
2023-02-11T14:32:33.517Z,14.80
2023-02-11T14:35:24.248Z,14.73
2023-02-11T14:38:19.273Z,13.23
2023-02-11T14:40:58.657Z,12.80
2023-02-11T14:43:31.082Z,12.93
2023-02-11T14:46:00.003Z,18.10
2023-02-11T14:48:38.011Z,13.70
2023-02-11T14:51:13.546Z,13.20
2023-02-11T14:53:45.191Z,13.80
2023-02-11T14:56:21.518Z,14.32
2023-02-11T14:58:51.810Z,14.63
2023-02-11T15:01:43.879Z,12.88
2023-02-11T15:04:25.112Z,15.25
2023-02-11T15:06:51.827Z,13.00
2023-02-11T15:11:52.104Z,11.65
2023-02-11T15:14:27.223Z,12.88
2023-02-11T15:16:56.608Z,13.38
2023-02-11T15:19:41.369Z,13.93
2023-02-11T15:22:20.250Z,12.40
2023-02-11T15:24:58.536Z,14.10
2023-02-11T15:27:25.882Z,12.88
2023-02-11T15:29:52.909Z,13.27
2023-02-11T15:32:23.961Z,14.10
2023-02-11T15:34:52.775Z,15.30
2023-02-11T15:37:25.220Z,13.63
2023-02-11T15:39:53.165Z,14.65
2023-02-11T15:42:26.457Z,14.63
2023-02-11T15:45:15.955Z,14.27
2023-02-11T15:47:49.797Z,12.73
2023-02-11T15:50:24.883Z,12.45
2023-02-11T15:52:52.462Z,12.02
2023-02-11T15:55:22.299Z,13.70
2023-02-11T15:57:55.025Z,14.02
2023-02-11T16:00:24.651Z,12.57
2023-02-11T16:02:52.448Z,12.05
2023-02-11T16:05:27.252Z,13.93
2023-02-11T16:07:54.017Z,26.25
2023-02-11T16:13:04.303Z,13.15
2023-02-11T16:15:43.776Z,13.40
2023-02-11T16:18:15.092Z,13.05
2023-02-11T16:20:47.438Z,13.43
2023-02-11T16:23:21.810Z,14.30
2023-02-11T16:25:48.481Z,12.65
2023-02-11T16:28:16.405Z,11.85
2023-02-11T16:30:43.435Z,12.30
2023-02-11T16:33:11.794Z,13.40
2023-02-11T16:35:38.551Z,14.13
2023-02-11T16:40:31.495Z,13.35
2023-02-11T16:42:57.984Z,12.95
2023-02-11T16:45:24.556Z,14.10
2023-02-11T16:47:51.052Z,13.00
2023-02-11T16:50:23.432Z,14.05
2023-02-11T16:52:50.156Z,15.05
2023-02-11T16:57:43.262Z,11.55
2023-02-11T17:00:11.748Z,13.48
2023-02-11T17:02:38.991Z,12.95
2023-02-11T17:05:08.989Z,15.05
2023-02-11T17:07:35.670Z,14.23
2023-02-11T17:12:28.819Z,13.70
2023-02-11T17:14:55.327Z,13.80
2023-02-11T17:17:24.545Z,15.13
2023-02-11T17:19:51.396Z,13.73
2023-02-11T17:22:18.785Z,14.15
2023-02-11T17:24:45.372Z,15.05
2023-02-11T17:27:12.310Z,13.73
2023-02-11T17:29:39.010Z,14.68
2023-02-11T17:34:32.492Z,14.40
2023-02-11T17:37:00.276Z,12.07
2023-02-11T17:39:27.165Z,14.70
2023-02-11T17:41:53.695Z,15.20
2023-02-11T17:44:20.438Z,15.68
2023-02-11T17:49:13.361Z,13.48
2023-02-11T17:51:40.408Z,14.57
2023-02-11T17:54:10.796Z,15.85
2023-02-11T17:56:38.315Z,14.10
2023-02-11T17:59:06.211Z,15.23
2023-02-11T18:01:33.626Z,16.10
2023-02-11T18:04:00.746Z,16.70
2023-02-11T18:06:29.265Z,15.13
2023-02-11T18:08:57.995Z,15.25
2023-02-11T18:11:25.293Z,15.88
2023-02-11T18:13:54.541Z,15.85
2023-02-11T18:16:22.069Z,14.27
2023-02-11T18:18:49.842Z,15.82
2023-02-11T18:21:19.747Z,16.02
2023-02-11T18:23:46.626Z,15.50
2023-02-11T18:26:14.644Z,16.83
2023-02-11T18:28:44.535Z,16.27
2023-02-11T18:31:14.143Z,16.60
2023-02-11T18:33:41.657Z,14.40
2023-02-11T18:36:11.082Z,16.75
2023-02-11T18:38:37.716Z,15.45
2023-02-11T18:41:04.416Z,15.82
2023-02-11T18:46:01.473Z,15.20
2023-02-11T18:48:28.010Z,15.25
2023-02-11T18:50:55.227Z,15.82
2023-02-11T18:53:23.271Z,14.40
2023-02-11T18:55:50.478Z,16.13
2023-02-11T18:58:17.925Z,17.58
2023-02-11T19:00:47.095Z,16.70
2023-02-11T19:03:13.740Z,16.40
2023-02-11T19:05:45.122Z,16.48
2023-02-11T19:08:11.948Z,16.65
2023-02-11T19:10:44.059Z,15.82
2023-02-11T19:13:11.306Z,17.50
2023-02-11T19:15:45.742Z,15.35
2023-02-11T19:18:13.917Z,16.30
2023-02-11T19:20:44.908Z,16.05
2023-02-11T19:23:11.544Z,15.50
2023-02-11T19:25:44.400Z,17.00
2023-02-11T19:28:10.944Z,16.55
2023-02-11T19:30:37.574Z,17.33
2023-02-11T19:33:04.075Z,16.67
2023-02-11T19:35:35.343Z,16.73
2023-02-11T19:38:03.590Z,15.73
2023-02-11T19:40:30.728Z,16.20
2023-02-11T19:42:57.236Z,17.35
2023-02-11T19:45:23.912Z,19.85
2023-02-11T19:50:21.323Z,20.33
2023-02-11T19:52:47.859Z,20.00
2023-02-11T19:55:15.047Z,19.20
2023-02-11T19:57:41.560Z,18.88
2023-02-11T20:00:08.508Z,20.20
2023-02-11T20:02:37.944Z,20.42
2023-02-11T20:05:04.941Z,18.83
2023-02-11T20:07:31.540Z,19.38
2023-02-11T20:09:58.165Z,17.60
2023-02-11T20:12:24.713Z,19.88
2023-02-11T20:14:51.178Z,17.52
2023-02-11T20:17:17.734Z,18.13
2023-02-11T20:19:44.324Z,18.63
2023-02-11T20:22:10.811Z,16.85
2023-02-11T20:24:37.331Z,17.08
2023-02-11T20:27:03.888Z,18.17
2023-02-11T20:29:31.843Z,17.65
2023-02-11T20:31:58.570Z,16.02
2023-02-11T20:36:52.442Z,14.95
2023-02-11T20:39:21.887Z,16.13
2023-02-11T20:41:49.073Z,16.65
2023-02-11T20:44:15.661Z,15.32
2023-02-11T20:46:46.722Z,15.23
2023-02-11T20:49:16.954Z,17.98
2023-02-11T20:51:43.809Z,16.70
2023-02-11T20:54:15.536Z,16.38
2023-02-11T20:56:42.944Z,16.30
2023-02-11T20:59:10.112Z,16.55
2023-02-11T21:04:12.051Z,13.55
2023-02-11T21:06:41.463Z,15.23
2023-02-11T21:09:10.707Z,15.70
2023-02-11T21:11:37.691Z,16.95
2023-02-11T21:14:04.875Z,17.60
2023-02-11T21:16:32.346Z,15.93
2023-02-11T21:19:00.576Z,17.63
2023-02-11T21:21:27.140Z,17.08
2023-02-11T21:23:53.842Z,16.77
2023-02-11T21:26:20.420Z,18.67
2023-02-11T21:28:48.747Z,22.70
2023-02-11T21:31:22.574Z,24.13
2023-02-11T21:33:50.673Z,21.13
2023-02-11T21:36:17.720Z,17.60
2023-02-11T21:38:44.366Z,18.20
2023-02-11T21:41:11.667Z,14.88
2023-02-11T21:43:38.306Z,17.85
2023-02-11T21:46:14.178Z,18.30
2023-02-11T21:48:40.843Z,17.30
2023-02-11T21:51:18.718Z,20.90
2023-02-11T21:53:45.693Z,21.42
2023-02-11T21:56:15.790Z,20.50
2023-02-11T21:58:42.813Z,22.17
2023-02-11T22:01:22.217Z,25.23
2023-02-11T22:03:49.383Z,22.00
2023-02-11T22:06:26.285Z,20.08
2023-02-11T22:08:54.237Z,16.40
2023-02-11T22:11:20.867Z,15.63
2023-02-11T22:13:47.904Z,14.27
2023-02-11T22:16:16.655Z,14.10
2023-02-11T22:18:46.450Z,14.48
2023-02-11T22:21:18.557Z,14.38
2023-02-11T22:23:45.717Z,13.93
2023-02-11T22:26:20.882Z,14.50
2023-02-11T22:28:48.339Z,13.63
2023-02-11T22:31:18.284Z,15.07
2023-02-11T22:33:45.702Z,15.23
2023-02-11T22:36:24.343Z,15.45
2023-02-11T22:38:51.345Z,15.27
2023-02-11T22:41:18.899Z,12.60
2023-02-11T22:43:46.261Z,12.25
2023-02-11T22:46:15.624Z,13.38
2023-02-11T22:48:42.957Z,12.15
2023-02-11T22:51:12.931Z,12.45
2023-02-11T22:53:40.112Z,12.07
2023-02-11T22:56:10.132Z,12.23
2023-02-11T22:58:37.091Z,11.75
2023-02-11T23:01:05.744Z,11.38
2023-02-11T23:03:33.559Z,11.30
2023-02-11T23:06:01.022Z,10.73
2023-02-11T23:08:29.098Z,9.70
2023-02-11T23:10:55.690Z,10.77
2023-02-11T23:13:22.466Z,11.52
2023-02-11T23:18:15.597Z,9.20
2023-02-11T23:20:43.918Z,9.90
2023-02-11T23:23:10.698Z,10.48
2023-02-11T23:28:08.501Z,9.35
2023-02-11T23:30:35.270Z,8.20
2023-02-11T23:35:29.057Z,9.00
2023-02-11T23:37:55.608Z,9.40
2023-02-11T23:40:22.354Z,9.75
2023-02-11T23:45:15.934Z,8.60
2023-02-11T23:50:09.650Z,8.50
2023-02-11T23:52:36.318Z,9.45
2023-02-11T23:55:03.282Z,9.63
2023-02-11T23:57:32.583Z,9.90
2023-02-11T23:59:59.197Z,10.27
